This is the latest recevied weather packets stored in our database for station/object KB0BDN-13. If no packets are shown the sender has not sent any weather packets the latest 10 day(s).
| Time | Temp. | Humidity | Pressure | Rain* | Wind** | Luminosity | Snow |
|---|---|---|---|---|---|---|---|
| 1778242627 | 2.22° C | 61% | 1000.6 hPa | 0 mm | - | - | - |
| 1778241727 | 0.56° C | 67% | 1000.5 hPa | 0 mm | - | - | - |
| 1778240827 | -0.56° C | 71% | 1000.5 hPa | 0 mm | - | - | - |
| 1778239927 | -1.11° C | 73% | 1000.5 hPa | 0 mm | - | - | - |
| 1778239027 | -1.11° C | 72% | 1000.4 hPa | 0 mm | - | - | - |
| 1778238127 | -1.11° C | 72% | 1000.4 hPa | 0 mm | - | - | - |
| 1778237227 | -1.11° C | 72% | 1000.5 hPa | 0 mm | - | - | - |
| 1778236327 | -1.11° C | 73% | 1000.5 hPa | 0 mm | - | - | - |
| 1778235427 | -1.11° C | 74% | 1000.7 hPa | 0 mm | - | - | - |
| 1778234527 | -1.67° C | 75% | 1000.7 hPa | 0 mm | - | - | - |
| 1778233627 | -1.67° C | 76% | 1000.8 hPa | 0 mm | - | - | - |
| 1778232727 | -2.22° C | 76% | 1000.9 hPa | 0 mm | - | - | - |
| 1778231827 | -1.67° C | 74% | 1001 hPa | 0 mm | - | - | - |
| 1778230927 | -1.11° C | 73% | 1001 hPa | 0 mm | - | - | - |
| 1778230027 | -1.11° C | 72% | 1001 hPa | 0 mm | - | - | - |
| 1778229127 | -1.11° C | 73% | 1001.1 hPa | 0 mm | - | - | - |
| 1778228227 | -1.11° C | 74% | 1001.3 hPa | 0 mm | - | - | - |
| 1778227327 | -1.67° C | 78% | 1001.5 hPa | 0 mm | - | - | - |
| 1778226427 | -3.33° C | 85% | 1001.5 hPa | 0 mm | - | - | - |
| 1778225527 | -3.89° C | 85% | 1001.6 hPa | 0 mm | - | - | - |
| 1778224627 | -3.89° C | 85% | 1001.8 hPa | 0 mm | - | - | - |
| 1778223727 | -3.89° C | 85% | 1002 hPa | 0 mm | - | - | - |
| 1778222827 | -4.44° C | 88% | 1002.1 hPa | 0 mm | - | - | - |
| 1778221927 | -5° C | 89% | 1002.1 hPa | 0 mm | - | - | - |
| 1778221027 | -5° C | 88% | 1002.2 hPa | 0 mm | - | - | - |
* Rain latest hour (hover to see other rain measurements)
** Current wind speed in m/s (hover to see current wind gust speed)